Notice: Undefined index: language in /home/u660565183/domains/topcovirtual.com/public_html/vam/index.php on line 25

 TopCo Virtual Airlines

TopCo Virtual Airlines Vuela al futuro con nosotros




 INFORMACIÓN METAR y TAF

Deprecated: The each() function is deprecated. This message will be suppressed on further calls in /home/u660565183/domains/topcovirtual.com/public_html/vam/helpers/get_metar.php on line 20
METAR FOR LEZL
ADDS - METARS form results

(0718 UTC 07 May 2021)
Data provider http://aviationweather.gov/metar/data/
 
METAR text: LEZL 070700Z 04004KT 020V080 CAVOK 18/11 Q1018 NOSIG
Conditions at: LEZL (SEVILLA (CIV/MIL, ES) observed 0700 UTC 07 May 2021
Temperature: 18.0°C (64°F)
Dewpoint: 11.0°C (52°F) [RH = 64%]
Pressure (altimeter): 30.06 inches Hg (1018.0 mb)
Winds: from the NE (40 degrees) at 5 MPH (4 knots; 2.1 m/s)
Visibility: 6 or more miles (10+ km)
Ceiling: ceiling and visibility are OK
Clouds: unknown
Weather: no significant weather observed at this time

METAR text: LEZL 070630Z VRB02KT CAVOK 16/10 Q1018 NOSIG
Conditions at: LEZL (SEVILLA (CIV/MIL, ES) observed 0630 UTC 07 May 2021
Temperature: 16.0°C (61°F)
Dewpoint: 10.0°C (50°F) [RH = 68%]
Pressure (altimeter): 30.06 inches Hg (1018.0 mb)
Winds: variable direction winds at 2 MPH (2 knots; 1.0 m/s)
Visibility: 6 or more miles (10+ km)
Ceiling: ceiling and visibility are OK
Clouds: unknown
Weather: no significant weather observed at this time

Forecast for: LEZL (SEVILLA (CIV/MIL, ES)
Text: TAF LEZL 070200Z 0703/0803 04006KT CAVOK TX31/0715Z TN15/0706Z
Forecast period: 0300 UTC 07 May 2021 to 0300 UTC 08 May 2021
Forecast type: FROM: standard forecast or significant change
Winds: from the NE (40 degrees) at 7 MPH (6 knots; 3.1 m/s)
Visibility: 6 or more miles (10+ km)
Ceiling: unknown
Clouds: missing
Weather: no significant weather forecast for this period

 MAPA DE AEROPUERTO

 INFORMACIÓN DE PISTA

Fatal error: Uncaught Error: Call to a member function fetch_assoc() on bool in /home/u660565183/domains/topcovirtual.com/public_html/vam/airport_info.php:63 Stack trace: #0 /home/u660565183/domains/topcovirtual.com/public_html/vam/main_index.php(754): include() #1 /home/u660565183/domains/topcovirtual.com/public_html/vam/index.php(42): include('/home/u66056518...') #2 {main} thrown in /home/u660565183/domains/topcovirtual.com/public_html/vam/airport_info.php on line 63